createdAt,value
2019-04-05T00:00:37.522Z,127.38
2019-04-05T00:04:41.139Z,130.78
2019-04-05T00:08:44.751Z,132.00
2019-04-05T00:12:48.364Z,133.45
2019-04-05T00:16:52.093Z,134.45
2019-04-05T00:20:55.711Z,130.32
2019-04-05T00:24:59.314Z,135.12
2019-04-05T00:29:03.229Z,120.35
2019-04-05T00:33:06.971Z,138.47
2019-04-05T00:37:10.663Z,133.37
2019-04-05T00:41:14.275Z,138.25
2019-04-05T00:45:27.448Z,144.07
2019-04-05T00:49:23.551Z,134.43
2019-04-05T00:53:27.268Z,133.02
2019-04-05T00:57:30.988Z,127.55
2019-04-05T01:01:35.000Z,127.05
2019-04-05T01:05:39.645Z,138.45
2019-04-05T01:09:43.360Z,142.87
2019-04-05T01:13:47.078Z,130.50
2019-04-05T01:17:51.099Z,130.50
2019-04-05T01:21:56.351Z,131.52
2019-04-05T01:26:01.762Z,125.40
2019-04-05T01:30:11.772Z,131.95
2019-04-05T01:34:15.547Z,129.23
2019-04-05T01:38:19.410Z,135.17
2019-04-05T01:42:23.330Z,119.53
2019-04-05T01:46:27.047Z,117.15
2019-04-05T01:50:31.073Z,118.45
2019-04-05T01:54:34.789Z,114.00
2019-04-05T01:58:38.402Z,117.13
2019-04-05T02:02:42.534Z,115.97
2019-04-05T02:06:46.260Z,126.30
2019-04-05T02:10:49.979Z,124.05
2019-04-05T02:14:53.606Z,120.50
2019-04-05T02:18:57.211Z,120.08
2019-04-05T02:23:01.054Z,116.15
2019-04-05T02:27:04.846Z,112.95
2019-04-05T02:31:08.572Z,119.60
2019-04-05T02:35:12.788Z,122.65
2019-04-05T02:39:16.503Z,119.33
2019-04-05T02:43:21.755Z,130.37
2019-04-05T02:47:25.779Z,131.25
2019-04-05T02:51:31.749Z,130.32
2019-04-05T02:55:37.761Z,127.38
2019-04-05T02:59:42.425Z,138.37
2019-04-05T03:03:46.379Z,133.45
2019-04-05T03:07:50.402Z,140.95
2019-04-05T03:11:54.625Z,133.65
2019-04-05T03:16:01.561Z,135.22
2019-04-05T03:20:06.636Z,139.95
2019-04-05T03:24:13.367Z,137.62
2019-04-05T03:28:17.570Z,137.05
2019-04-05T03:32:21.557Z,149.97
2019-04-05T03:36:25.685Z,139.43
2019-04-05T03:40:29.654Z,136.20
2019-04-05T03:44:33.609Z,141.35
2019-04-05T03:48:37.444Z,140.92
2019-04-05T03:52:41.314Z,135.90
2019-04-05T03:56:45.012Z,144.90
2019-04-05T04:00:48.757Z,147.15
2019-04-05T04:04:52.554Z,150.60
2019-04-05T04:08:56.733Z,137.10
2019-04-05T04:13:00.750Z,136.35
2019-04-05T04:17:12.760Z,141.55
2019-04-05T04:21:34.152Z,137.52
2019-04-05T04:25:39.186Z,144.13
2019-04-05T04:29:42.919Z,138.70
2019-04-05T04:33:47.351Z,131.63
2019-04-05T04:37:51.375Z,127.02
2019-04-05T04:41:55.194Z,144.97
2019-04-05T04:45:59.111Z,145.87
2019-04-05T04:50:03.008Z,130.72
2019-04-05T04:54:06.855Z,144.13
2019-04-05T04:58:10.876Z,148.87
2019-04-05T05:02:14.695Z,138.62
2019-04-05T05:06:18.512Z,131.35
2019-04-05T05:10:22.434Z,136.97
2019-04-05T05:14:27.199Z,136.90
2019-04-05T05:18:31.049Z,133.75
2019-04-05T05:22:35.326Z,135.97
2019-04-05T05:26:39.449Z,127.55
2019-04-05T05:30:43.266Z,135.45
2019-04-05T05:34:47.191Z,147.10
2019-04-05T05:38:51.475Z,142.13
2019-04-05T05:42:55.233Z,149.85
2019-04-05T05:46:58.950Z,149.15
2019-04-05T05:51:02.828Z,138.07
2019-04-05T05:55:06.994Z,146.50
2019-04-05T05:59:10.611Z,149.27
2019-04-05T06:03:16.662Z,151.87
2019-04-05T06:07:20.175Z,143.43
2019-04-05T06:11:24.011Z,141.45
2019-04-05T06:15:27.629Z,148.80
2019-04-05T06:19:31.237Z,146.47
2019-04-05T06:23:34.854Z,141.05
2019-04-05T06:27:38.568Z,150.00
2019-04-05T06:31:42.331Z,150.72
2019-04-05T06:35:45.941Z,141.07
2019-04-05T06:39:49.717Z,144.00
2019-04-05T06:43:53.279Z,141.53
2019-04-05T06:47:56.944Z,142.90
2019-04-05T06:52:00.558Z,133.27
2019-04-05T06:56:04.386Z,130.70
2019-04-05T07:00:08.295Z,121.28
2019-04-05T07:04:11.967Z,118.57
2019-04-05T07:08:18.143Z,128.07
2019-04-05T07:12:20.965Z,123.50
2019-04-05T07:16:24.653Z,118.70
2019-04-05T07:20:28.267Z,119.80
2019-04-05T07:24:31.878Z,123.72
2019-04-05T07:28:35.597Z,127.70
2019-04-05T07:32:39.209Z,127.12
2019-04-05T07:36:42.826Z,117.87
2019-04-05T07:40:46.538Z,121.33
2019-04-05T07:44:51.282Z,119.17
2019-04-05T07:48:54.997Z,118.85
2019-04-05T07:52:58.673Z,126.30
2019-04-05T07:57:02.439Z,106.17
2019-04-05T08:01:06.535Z,107.97
2019-04-05T08:05:10.169Z,123.53
2019-04-05T08:09:15.679Z,126.02
2019-04-05T08:13:20.615Z,123.55
2019-04-05T08:17:24.390Z,113.50
2019-04-05T08:21:28.004Z,120.37
2019-04-05T08:25:32.764Z,119.13
2019-04-05T08:29:36.357Z,114.08
2019-04-05T08:33:40.074Z,123.85
2019-04-05T08:37:44.211Z,119.45
2019-04-05T08:41:47.921Z,119.67
2019-04-05T08:45:51.528Z,118.30
2019-04-05T08:49:55.139Z,127.12
2019-04-05T08:53:58.861Z,125.22
2019-04-05T08:58:02.497Z,128.38
2019-04-05T09:02:06.088Z,134.03
2019-04-05T09:06:09.809Z,120.17
2019-04-05T09:10:13.723Z,130.03
2019-04-05T09:14:17.335Z,125.67
2019-04-05T09:18:20.953Z,124.80
2019-04-05T09:22:24.629Z,121.75
2019-04-05T09:26:28.278Z,132.15
2019-04-05T09:30:31.996Z,126.05
2019-04-05T09:34:35.610Z,121.02
2019-04-05T09:38:39.327Z,117.37
2019-04-05T09:42:43.046Z,116.37
2019-04-05T09:46:50.875Z,116.25
2019-04-05T09:50:52.013Z,115.03
2019-04-05T09:54:56.859Z,119.65
2019-04-05T09:59:00.470Z,119.77
2019-04-05T10:03:04.288Z,113.57
2019-04-05T10:07:08.515Z,129.95
2019-04-05T10:11:12.230Z,139.80
2019-04-05T10:15:16.360Z,124.90
2019-04-05T10:19:19.970Z,130.85
2019-04-05T10:23:23.584Z,126.55
2019-04-05T10:27:27.202Z,119.77
2019-04-05T10:31:30.812Z,119.50
2019-04-05T10:35:34.427Z,125.72
2019-04-05T10:39:38.042Z,128.15
2019-04-05T10:43:41.757Z,123.33
2019-04-05T10:47:45.327Z,136.12
2019-04-05T10:51:49.191Z,127.05
2019-04-05T10:55:52.911Z,124.33
2019-04-05T10:59:56.620Z,129.05
2019-04-05T11:04:00.345Z,122.80
2019-04-05T11:08:04.063Z,122.02
2019-04-05T11:12:08.757Z,126.22
2019-04-05T11:16:13.438Z,119.15
2019-04-05T11:20:21.780Z,120.60
2019-04-05T11:24:22.815Z,122.80
2019-04-05T11:28:26.531Z,123.85
2019-04-05T11:32:30.760Z,126.90
2019-04-05T11:36:34.850Z,115.42
2019-04-05T11:40:39.040Z,119.08
2019-04-05T11:44:43.337Z,129.65
2019-04-05T11:48:47.912Z,130.30
2019-04-05T11:52:51.694Z,118.42
2019-04-05T11:56:55.561Z,118.13
2019-04-05T12:01:19.026Z,121.62
2019-04-05T12:05:37.150Z,122.90
2019-04-05T12:09:40.840Z,117.35
2019-04-05T12:13:47.410Z,119.02
2019-04-05T12:17:49.777Z,121.67
2019-04-05T12:21:53.381Z,128.40
2019-04-05T12:25:57.098Z,123.58
2019-04-05T12:30:00.712Z,124.07
2019-04-05T12:34:05.361Z,141.02
2019-04-05T12:38:09.071Z,125.33
2019-04-05T12:42:13.033Z,129.27
2019-04-05T12:46:16.913Z,133.87
2019-04-05T12:50:20.625Z,130.13
2019-04-05T12:54:24.340Z,138.30
2019-04-05T12:58:27.952Z,138.07
2019-04-05T13:02:33.887Z,136.30
2019-04-05T13:06:37.023Z,139.00
2019-04-05T13:10:40.795Z,133.43
2019-04-05T13:14:44.309Z,137.75
2019-04-05T13:18:47.970Z,127.15
2019-04-05T13:22:51.587Z,126.62
2019-04-05T13:26:55.298Z,126.10
2019-04-05T13:30:59.020Z,133.52
2019-04-05T13:35:02.592Z,131.50
2019-04-05T13:39:07.679Z,142.70
2019-04-05T13:43:11.292Z,133.05
2019-04-05T13:47:15.058Z,128.87
2019-04-05T13:51:27.707Z,133.97
2019-04-05T13:55:24.079Z,129.18
2019-04-05T13:59:28.511Z,121.53
2019-04-05T14:03:32.583Z,121.45
2019-04-05T14:07:36.351Z,113.97
2019-04-05T14:11:40.143Z,119.25
2019-04-05T14:15:43.929Z,113.65
2019-04-05T14:19:48.748Z,110.50
2019-04-05T14:23:53.915Z,109.12
2019-04-05T14:27:57.512Z,105.45
2019-04-05T14:32:19.470Z,102.65
2019-04-05T14:36:06.668Z,107.45
2019-04-05T14:40:13.868Z,99.42
2019-04-05T14:44:16.352Z,104.78
2019-04-05T14:48:19.963Z,99.52
2019-04-05T14:52:25.644Z,102.50
2019-04-05T14:56:29.316Z,102.97
2019-04-05T15:00:33.370Z,98.50
2019-04-05T15:04:36.992Z,90.40
2019-04-05T15:08:40.817Z,99.42
2019-04-05T15:12:44.413Z,105.47
2019-04-05T15:16:48.131Z,90.53
2019-04-05T15:20:51.709Z,102.12
2019-04-05T15:24:56.380Z,117.77
2019-04-05T15:29:00.098Z,102.97
2019-04-05T15:33:04.306Z,109.07
2019-04-05T15:37:07.938Z,110.52
2019-04-05T15:41:11.657Z,111.97
2019-04-05T15:45:16.612Z,103.60
2019-04-05T15:49:21.560Z,110.25
2019-04-05T15:53:26.286Z,106.80
2019-04-05T15:57:33.462Z,108.52
2019-04-05T16:01:35.354Z,95.25
2019-04-05T16:05:39.174Z,102.27
2019-04-05T16:09:42.787Z,101.50
2019-04-05T16:13:46.403Z,91.08
2019-04-05T16:17:50.017Z,86.30
2019-04-05T16:21:53.583Z,82.55
2019-04-05T16:25:57.240Z,88.62
2019-04-05T16:30:00.864Z,90.65
2019-04-05T16:34:04.676Z,94.30
2019-04-05T16:38:08.312Z,79.12
2019-04-05T16:42:12.009Z,83.80
2019-04-05T16:46:15.635Z,81.17
2019-04-05T16:50:21.387Z,94.47
2019-04-05T16:54:25.001Z,91.70
2019-04-05T16:58:28.716Z,95.07
2019-04-05T17:02:33.405Z,99.87
2019-04-05T17:06:37.141Z,97.60
2019-04-05T17:10:40.918Z,91.08
2019-04-05T17:15:05.477Z,90.40
2019-04-05T17:19:09.094Z,95.40
2019-04-05T17:23:12.710Z,92.55
2019-04-05T17:27:16.298Z,93.95
2019-04-05T17:31:20.013Z,97.02
2019-04-05T17:35:23.629Z,100.42
2019-04-05T17:39:27.343Z,87.60
2019-04-05T17:43:31.060Z,86.30
2019-04-05T17:47:34.777Z,85.75
2019-04-05T17:51:38.389Z,90.40
2019-04-05T17:55:42.356Z,86.40
2019-04-05T17:59:48.383Z,92.20
2019-04-05T18:03:52.101Z,90.85
2019-04-05T18:07:55.815Z,88.70
2019-04-05T18:11:59.433Z,92.97
2019-04-05T18:16:03.358Z,85.25
2019-04-05T18:20:09.894Z,89.77
2019-04-05T18:24:13.648Z,93.15
2019-04-05T18:28:17.270Z,82.27
2019-04-05T18:32:20.882Z,84.50
2019-04-05T18:36:24.694Z,78.25
2019-04-05T18:40:39.487Z,89.70
2019-04-05T18:44:34.589Z,94.45
2019-04-05T18:48:38.212Z,89.00
2019-04-05T18:52:44.245Z,90.53
2019-04-05T18:56:47.988Z,87.88
2019-04-05T19:00:53.563Z,80.53
2019-04-05T19:04:57.497Z,84.80
2019-04-05T19:09:01.624Z,84.85
2019-04-05T19:13:05.766Z,78.35
2019-04-05T19:17:22.851Z,78.92
2019-04-05T19:21:15.851Z,83.50
2019-04-05T19:25:20.124Z,82.50
2019-04-05T19:29:24.355Z,88.50
2019-04-05T19:49:50.840Z,103.75
2019-04-05T19:54:01.328Z,106.37
2019-04-05T19:58:02.979Z,111.70
2019-04-05T20:02:06.798Z,109.00
2019-04-05T20:06:10.720Z,112.55
2019-04-05T20:10:14.651Z,103.97
2019-04-05T20:14:18.286Z,106.00
2019-04-05T20:18:22.040Z,110.35
2019-04-05T20:22:25.687Z,108.30
2019-04-05T20:26:29.301Z,108.63
2019-04-05T20:30:32.916Z,111.60
2019-04-05T20:34:36.734Z,111.77
2019-04-05T20:38:41.378Z,116.50
2019-04-05T20:42:44.986Z,109.48
2019-04-05T20:46:48.905Z,119.04
2019-04-05T20:50:52.519Z,107.22
2019-04-05T20:54:56.239Z,107.78
2019-04-05T20:59:01.281Z,110.05
2019-04-05T21:03:05.103Z,106.60
2019-04-05T21:07:08.719Z,111.62
2019-04-05T21:11:12.432Z,114.42
2019-04-05T21:15:16.043Z,118.55
2019-04-05T21:19:19.607Z,115.37
2019-04-05T21:23:23.273Z,104.78
2019-04-05T21:27:26.897Z,113.30
2019-04-05T21:31:30.618Z,113.60
2019-04-05T21:35:34.229Z,113.70
2019-04-05T21:39:38.763Z,116.82
2019-04-05T21:43:44.527Z,125.90
2019-04-05T21:47:48.142Z,115.65
2019-04-05T21:51:51.753Z,115.50
2019-04-05T21:55:55.469Z,122.40
2019-04-05T21:59:59.082Z,107.30
2019-04-05T22:04:03.122Z,115.67
2019-04-05T22:08:06.730Z,108.05
2019-04-05T22:12:10.338Z,108.42
2019-04-05T22:16:14.253Z,103.53
2019-04-05T22:20:18.804Z,118.28
2019-04-05T22:24:22.406Z,110.42
2019-04-05T22:28:26.325Z,117.30
2019-04-05T22:32:29.937Z,127.20
2019-04-05T22:36:33.654Z,124.10
2019-04-05T22:40:37.269Z,115.57
2019-04-05T22:44:41.618Z,109.87
2019-04-05T22:48:45.518Z,104.95
2019-04-05T22:52:49.131Z,97.30
2019-04-05T22:56:52.682Z,97.10
2019-04-05T23:00:56.405Z,117.97
2019-04-05T23:05:01.015Z,94.22
2019-04-05T23:09:07.039Z,90.95
2019-04-05T23:13:10.786Z,79.07
2019-04-05T23:17:14.736Z,82.55
2019-04-05T23:21:18.326Z,87.57
2019-04-05T23:25:22.506Z,85.85
2019-04-05T23:29:26.264Z,98.75
2019-04-05T23:33:29.876Z,84.00
2019-04-05T23:37:33.592Z,81.85
2019-04-05T23:41:37.305Z,68.12
2019-04-05T23:45:40.923Z,75.47
2019-04-05T23:49:44.639Z,64.92
2019-04-05T23:53:48.253Z,71.15
2019-04-05T23:57:51.868Z,59.83
